Time;durP1;ratioP1;P1;durP2;ratioP2;P2;SDS_P1;SDS_P2;PMS_P1;PMS_P2;Temp;Humidity;BMP_temperature;BMP_pressure;BME280_temperature;BME280_humidity;BME280_pressure;Samples;Min_cycle;Max_cycle;Signal;HPM_P1;HPM_P2
2023/07/31 00:01:27;;;;;;;2.80;1.80;;;;;;;24.13;67.09;101000.60;106953;1267;25402;-51
2023/07/31 00:03:54;;;;;;;3.00;1.80;;;;;;;24.12;67.12;101001.20;107144;1267;25488;-52
2023/07/31 00:06:21;;;;;;;4.70;1.90;;;;;;;24.11;67.04;100993.44;107077;1271;25386;-51
2023/07/31 00:08:48;;;;;;;3.70;2.00;;;;;;;24.10;67.03;100990.33;107128;1258;25335;-51
2023/07/31 00:11:14;;;;;;;4.20;2.30;;;;;;;24.09;67.11;100984.21;107190;1254;22986;-51
2023/07/31 00:13:41;;;;;;;3.70;2.30;;;;;;;24.08;67.19;100985.52;107114;1267;25388;-51
2023/07/31 00:16:08;;;;;;;6.10;2.20;;;;;;;24.07;67.40;100987.94;107067;1263;25346;-51
2023/07/31 00:18:35;;;;;;;3.00;1.90;;;;;;;24.06;67.39;100986.24;107105;1272;25405;-51
2023/07/31 00:21:02;;;;;;;2.30;1.80;;;;;;;24.06;67.53;100986.63;107087;1266;25354;-52
2023/07/31 00:23:29;;;;;;;2.30;2.00;;;;;;;24.04;67.88;100983.33;107176;1267;25319;-52
2023/07/31 00:25:56;;;;;;;5.30;2.00;;;;;;;24.04;68.00;100983.16;107114;1263;22534;-51
2023/07/31 00:28:23;;;;;;;5.60;2.50;;;;;;;24.04;68.00;100983.56;107214;1251;25334;-51
2023/07/31 00:30:50;;;;;;;2.70;2.00;;;;;;;24.03;67.99;100979.56;107184;1267;25318;-51
2023/07/31 00:33:17;;;;;;;3.40;2.10;;;;;;;24.02;67.90;100979.98;106997;1263;25395;-52
2023/07/31 00:35:44;;;;;;;2.60;1.70;;;;;;;24.00;68.04;100981.13;107087;1265;25331;-52
2023/07/31 00:38:11;;;;;;;3.60;2.10;;;;;;;23.99;68.07;100979.79;107137;1263;25328;-52
2023/07/31 00:40:39;;;;;;;3.40;2.00;;;;;;;23.98;68.31;100982.04;107110;1267;25328;-52
2023/07/31 00:43:06;;;;;;;2.90;1.90;;;;;;;23.97;68.42;100982.95;107151;1263;25385;-52
2023/07/31 00:45:35;;;;;;;4.10;2.00;;;;;;;23.96;68.63;100982.70;107083;1266;25403;-52
2023/07/31 00:48:02;;;;;;;4.70;1.90;;;;;;;23.95;68.71;100981.90;107141;1264;25350;-52
2023/07/31 00:50:29;;;;;;;3.30;2.20;;;;;;;23.95;68.78;100987.40;107267;1267;25322;-52
2023/07/31 00:52:58;;;;;;;2.20;2.00;;;;;;;23.94;68.88;100985.69;106842;1269;25281;-52
2023/07/31 00:55:25;;;;;;;3.50;1.70;;;;;;;23.94;68.95;100986.61;107046;1270;25383;-52
2023/07/31 00:57:52;;;;;;;3.20;1.90;;;;;;;23.94;69.17;100985.54;107192;1267;25399;-51
2023/07/31 01:00:19;;;;;;;3.20;2.00;;;;;;;23.94;69.25;100987.84;107184;1263;25233;-52
2023/07/31 01:02:47;;;;;;;1.80;1.70;;;;;;;23.95;69.43;100985.44;106906;1267;25400;-51
2023/07/31 01:05:14;;;;;;;2.50;1.90;;;;;;;23.95;69.51;100987.89;107080;1264;25376;-52
2023/07/31 01:08:08;;;;;;;2.80;1.70;;;;;;;23.96;69.58;100989.59;107185;1261;25347;-51
2023/07/31 01:10:40;;;;;;;2.80;1.70;;;;;;;23.97;69.52;100991.32;107173;1267;25359;-51
2023/07/31 01:13:07;;;;;;;3.00;2.30;;;;;;;23.97;69.74;100987.75;107132;1251;24259;-52
2023/07/31 01:15:34;;;;;;;2.60;1.90;;;;;;;23.97;69.74;100987.90;107086;1264;25385;-52
2023/07/31 01:18:01;;;;;;;3.90;2.30;;;;;;;23.98;69.89;100990.19;106930;1269;25356;-51
2023/07/31 01:20:28;;;;;;;5.20;2.20;;;;;;;23.99;69.92;100990.10;107005;1267;25455;-51
2023/07/31 01:23:04;;;;;;;4.40;2.10;;;;;;;23.99;69.96;100987.42;106449;1268;25369;-51
2023/07/31 01:25:31;;;;;;;3.00;2.00;;;;;;;24.00;69.84;100992.15;107010;1260;25450;-51
2023/07/31 01:28:04;;;;;;;3.90;1.90;;;;;;;24.00;69.97;100991.76;107030;1270;25347;-52
2023/07/31 01:30:35;;;;;;;4.00;2.20;;;;;;;24.01;69.87;100996.30;106929;1260;25319;-52
2023/07/31 01:33:06;;;;;;;3.00;2.00;;;;;;;24.01;69.98;100999.83;107057;1260;22567;-52
2023/07/31 01:35:34;;;;;;;5.10;2.40;;;;;;;24.02;69.94;101002.30;107134;1264;25414;-52
2023/07/31 01:38:01;;;;;;;3.20;2.00;;;;;;;24.02;69.92;101001.39;106909;1266;25329;-51
2023/07/31 01:40:28;;;;;;;3.10;2.00;;;;;;;24.02;69.65;101005.66;107132;1270;25363;-53
2023/07/31 01:42:55;;;;;;;5.90;2.30;;;;;;;24.02;69.60;101002.45;107184;1254;25347;-52
2023/07/31 01:45:22;;;;;;;3.90;2.30;;;;;;;24.02;69.53;101006.36;107246;1254;25487;-51
2023/07/31 01:47:49;;;;;;;4.10;2.30;;;;;;;24.02;69.41;101006.00;107131;1266;25357;-52
2023/07/31 01:50:17;;;;;;;3.80;2.70;;;;;;;24.01;69.22;101010.66;107073;1257;25331;-52
2023/07/31 01:52:44;;;;;;;3.40;2.30;;;;;;;24.00;69.07;101010.56;107146;1270;25398;-52
2023/07/31 01:55:11;;;;;;;6.10;2.60;;;;;;;23.99;68.98;101014.69;107145;1254;25369;-51
2023/07/31 01:57:38;;;;;;;4.90;2.30;;;;;;;23.97;68.90;101014.19;107198;1267;25490;-52
2023/07/31 02:00:06;;;;;;;5.30;2.30;;;;;;;23.96;68.94;101016.92;107198;1260;25359;-51
2023/07/31 02:02:38;;;;;;;4.30;2.60;;;;;;;23.94;68.71;101020.08;107249;1254;25452;-51
2023/07/31 02:05:05;;;;;;;7.50;2.90;;;;;;;23.93;68.76;101024.41;107161;1263;25436;-51
2023/07/31 02:07:32;;;;;;;8.80;3.00;;;;;;;23.91;68.76;101022.59;107212;1266;25395;-52
2023/07/31 02:09:59;;;;;;;3.30;2.00;;;;;;;23.89;68.77;101024.70;107190;1264;25350;-52
2023/07/31 02:12:26;;;;;;;4.70;2.30;;;;;;;23.88;68.77;101021.23;106902;1267;25427;-52
2023/07/31 02:14:53;;;;;;;4.30;2.40;;;;;;;23.87;68.59;101022.52;107102;1267;25418;-52
2023/07/31 02:17:21;;;;;;;4.00;2.20;;;;;;;23.86;68.34;101025.63;107043;1264;25328;-51
2023/07/31 02:19:48;;;;;;;4.90;2.10;;;;;;;23.85;68.33;101028.38;106854;1273;25395;-52
2023/07/31 02:22:15;;;;;;;2.90;2.20;;;;;;;23.83;68.02;101028.11;107175;1267;24377;-52
2023/07/31 02:24:42;;;;;;;2.90;2.30;;;;;;;23.81;67.82;101030.23;106850;1273;25366;-51
2023/07/31 02:27:09;;;;;;;4.80;2.10;;;;;;;23.80;67.71;101030.33;107162;1263;25792;-51
2023/07/31 02:29:35;;;;;;;3.70;2.30;;;;;;;23.77;67.43;101029.42;107253;1264;25334;-51
2023/07/31 02:32:03;;;;;;;3.10;2.20;;;;;;;23.76;67.38;101032.04;107148;1263;25487;-52
2023/07/31 02:34:30;;;;;;;4.20;2.30;;;;;;;23.74;67.45;101025.11;107160;1264;25347;-52
2023/07/31 02:36:57;;;;;;;4.80;2.10;;;;;;;23.72;67.46;101022.90;107220;1263;25430;-52
2023/07/31 02:39:24;;;;;;;4.30;2.00;;;;;;;23.72;67.52;101023.11;107055;1267;25353;-52
2023/07/31 02:41:51;;;;;;;3.00;2.10;;;;;;;23.70;67.53;101026.60;107077;1255;25452;-52
2023/07/31 02:44:18;;;;;;;6.00;2.60;;;;;;;23.70;67.56;101029.30;107123;1264;24233;-52
2023/07/31 02:46:45;;;;;;;2.00;1.80;;;;;;;23.69;67.53;101023.33;107093;1267;25356;-52
2023/07/31 02:49:12;;;;;;;2.70;2.10;;;;;;;23.67;67.42;101019.73;107084;1267;25491;-52
2023/07/31 02:51:39;;;;;;;6.70;2.20;;;;;;;23.65;66.87;101015.45;107226;1264;22527;-52
2023/07/31 02:54:06;;;;;;;3.50;2.50;;;;;;;23.64;66.93;101008.81;107056;1256;25414;-52
2023/07/31 02:56:33;;;;;;;5.60;2.70;;;;;;;23.62;66.96;101005.77;106900;1264;25399;-51
2023/07/31 02:59:00;;;;;;;4.00;2.20;;;;;;;23.61;67.03;101007.60;106994;1261;25450;-52
2023/07/31 03:01:27;;;;;;;3.20;2.30;;;;;;;23.60;67.08;101006.63;106837;1267;25487;-52
2023/07/31 03:03:54;;;;;;;6.20;2.60;;;;;;;23.59;67.07;101006.71;107075;1261;22860;-52
2023/07/31 03:06:20;;;;;;;7.70;3.30;;;;;;;23.58;67.25;101008.73;106823;1260;25235;-51
2023/07/31 03:08:47;;;;;;;7.40;3.20;;;;;;;23.57;67.20;101008.79;106547;1267;25403;-52
2023/07/31 03:11:14;;;;;;;7.10;3.00;;;;;;;23.56;67.33;101007.30;107052;1264;25350;-51
2023/07/31 03:13:41;;;;;;;6.40;3.60;;;;;;;23.56;67.58;101008.16;106864;1268;24038;-51
2023/07/31 03:16:08;;;;;;;4.50;2.40;;;;;;;23.55;67.77;101008.23;106861;1267;25331;-52
2023/07/31 03:18:35;;;;;;;4.50;2.80;;;;;;;23.55;67.86;101011.63;106904;1273;25365;-51
2023/07/31 03:21:02;;;;;;;4.00;2.60;;;;;;;23.55;68.28;101011.11;107090;1264;25366;-51
2023/07/31 03:23:29;;;;;;;4.70;2.80;;;;;;;23.55;68.29;101009.66;107043;1264;25380;-51
2023/07/31 03:26:01;;;;;;;4.10;2.10;;;;;;;23.56;68.47;101010.48;106931;1266;25448;-51
2023/07/31 03:28:28;;;;;;;3.30;2.70;;;;;;;23.56;68.53;101007.08;107038;1265;25379;-53
2023/07/31 03:30:55;;;;;;;4.80;2.50;;;;;;;23.57;68.65;101006.47;107111;1260;25295;-50
2023/07/31 03:33:22;;;;;;;4.30;2.40;;;;;;;23.58;68.75;101003.23;107157;1260;22515;-51
2023/07/31 03:35:50;;;;;;;4.10;2.30;;;;;;;23.59;68.79;101005.98;107066;1262;25414;-50
2023/07/31 03:38:17;;;;;;;2.70;1.90;;;;;;;23.61;68.93;101007.26;107128;1263;25337;-52
2023/07/31 03:40:45;;;;;;;3.40;2.10;;;;;;;23.63;69.08;101007.48;107187;1254;25356;-52
2023/07/31 03:43:12;;;;;;;3.10;2.60;;;;;;;23.66;69.56;100999.81;107181;1252;25487;-51
2023/07/31 03:45:39;;;;;;;2.20;2.00;;;;;;;23.76;70.42;101000.51;106892;1263;22770;-52
2023/07/31 03:48:07;;;;;;;3.40;2.10;;;;;;;23.93;71.23;100996.92;107041;1263;25398;-52
2023/07/31 03:50:34;;;;;;;3.10;2.10;;;;;;;24.14;70.57;100998.05;107107;1264;25366;-51
2023/07/31 03:53:01;;;;;;;3.50;2.00;;;;;;;24.32;69.55;100996.88;107160;1264;25477;-51
2023/07/31 03:55:28;;;;;;;3.10;2.00;;;;;;;24.48;69.24;100999.56;106987;1265;25366;-52
2023/07/31 03:57:55;;;;;;;2.80;1.90;;;;;;;24.72;69.53;101000.23;107005;1254;25490;-52
2023/07/31 04:00:22;;;;;;;3.70;2.30;;;;;;;25.06;68.53;100997.55;107211;1260;23984;-51
2023/07/31 04:02:49;;;;;;;3.50;1.90;;;;;;;25.35;66.55;100987.77;107121;1264;25375;-51
2023/07/31 04:05:16;;;;;;;4.10;2.20;;;;;;;25.51;65.31;100991.09;107267;1264;25449;-51
2023/07/31 04:07:44;;;;;;;3.70;2.00;;;;;;;25.59;64.83;100991.02;107257;1264;25331;-51
2023/07/31 04:10:11;;;;;;;2.20;1.60;;;;;;;25.60;64.51;101002.11;107009;1269;25470;-52
2023/07/31 04:12:40;;;;;;;5.10;1.80;;;;;;;25.57;64.34;100996.15;107131;1260;23868;-53
2023/07/31 04:15:07;;;;;;;2.30;1.70;;;;;;;25.53;64.56;100996.81;107137;1266;25393;-52
2023/07/31 04:17:34;;;;;;;4.50;2.20;;;;;;;25.48;64.60;100989.77;107128;1253;25356;-52
2023/07/31 04:20:02;;;;;;;2.60;1.70;;;;;;;25.43;64.81;100988.44;106734;1268;25561;-51
2023/07/31 04:22:29;;;;;;;3.20;1.90;;;;;;;25.37;65.17;100990.66;107196;1251;25331;-52
2023/07/31 04:24:56;;;;;;;3.30;1.90;;;;;;;25.30;65.54;100997.23;107176;1259;22534;-52
2023/07/31 04:27:23;;;;;;;3.10;1.70;;;;;;;25.24;65.84;100994.18;107235;1263;25356;-53
2023/07/31 04:29:50;;;;;;;3.10;1.90;;;;;;;25.20;66.07;101002.67;107134;1260;23230;-52
2023/07/31 04:32:19;;;;;;;3.10;1.60;;;;;;;25.16;66.34;101001.56;107058;1263;25343;-52
2023/07/31 04:34:46;;;;;;;1.90;1.60;;;;;;;25.13;66.56;101004.14;107039;1264;24219;-51
2023/07/31 04:37:13;;;;;;;6.00;2.10;;;;;;;25.09;66.87;101001.94;106922;1263;24219;-52
2023/07/31 04:39:40;;;;;;;4.80;1.90;;;;;;;25.06;67.08;101005.34;106994;1266;25417;-52
2023/07/31 04:42:06;;;;;;;4.00;2.10;;;;;;;25.04;67.32;101002.67;107065;1251;22516;-51
2023/07/31 04:44:33;;;;;;;2.30;1.60;;;;;;;25.02;67.63;101006.38;107190;1261;25341;-52
2023/07/31 04:47:01;;;;;;;4.00;1.80;;;;;;;25.01;67.89;101011.27;107230;1260;25341;-51
2023/07/31 04:49:29;;;;;;;2.10;1.80;;;;;;;25.00;67.92;101013.27;107060;1258;25415;-52
2023/07/31 04:51:56;;;;;;;1.50;1.40;;;;;;;25.00;67.94;101017.02;107222;1256;25322;-51
2023/07/31 04:54:22;;;;;;;2.40;1.80;;;;;;;24.99;67.98;101024.00;107221;1264;25327;-52
2023/07/31 04:56:53;;;;;;;2.50;1.60;;;;;;;24.99;68.19;101027.34;106782;1264;25487;-52
2023/07/31 04:59:20;;;;;;;1.50;1.40;;;;;;;25.00;68.10;101028.20;107010;1266;25510;-50
2023/07/31 05:01:47;;;;;;;1.60;1.50;;;;;;;25.00;68.13;101028.89;107136;1261;25347;-51
2023/07/31 05:04:15;;;;;;;1.90;1.50;;;;;;;25.01;68.17;101025.41;107061;1249;22517;-53
2023/07/31 05:06:42;;;;;;;2.20;1.80;;;;;;;25.03;68.04;101027.80;107009;1267;25331;-51
2023/07/31 05:09:09;;;;;;;2.80;1.90;;;;;;;25.05;67.94;101024.76;107129;1263;25408;-51
2023/07/31 05:11:36;;;;;;;2.70;1.80;;;;;;;25.07;67.84;101028.22;107157;1252;22639;-52
2023/07/31 05:14:03;;;;;;;2.90;1.80;;;;;;;25.09;67.75;101029.65;107144;1270;25350;-53
2023/07/31 05:16:30;;;;;;;4.40;2.60;;;;;;;25.11;67.77;101027.38;106846;1266;25405;-51
2023/07/31 05:18:57;;;;;;;2.60;1.60;;;;;;;25.13;67.61;101026.48;107218;1264;25357;-52
2023/07/31 05:21:24;;;;;;;2.70;1.60;;;;;;;25.16;67.61;101026.77;107161;1253;25379;-51
2023/07/31 05:23:51;;;;;;;1.60;1.50;;;;;;;25.20;67.68;101029.14;107102;1264;25360;-50
2023/07/31 05:26:18;;;;;;;3.60;1.60;;;;;;;25.24;67.41;101027.73;107176;1256;25350;-51
2023/07/31 05:28:45;;;;;;;1.40;1.20;;;;;;;25.29;67.10;101028.05;107099;1263;25328;-51
2023/07/31 05:31:12;;;;;;;2.70;1.60;;;;;;;25.34;66.85;101033.29;106978;1257;25318;-52
2023/07/31 05:33:39;;;;;;;2.60;1.70;;;;;;;25.40;66.70;101034.58;107167;1262;24277;-52
2023/07/31 05:36:06;;;;;;;1.60;1.30;;;;;;;25.51;66.75;101035.68;107187;1251;25344;-52
2023/07/31 05:38:33;;;;;;;4.30;1.60;;;;;;;25.68;66.71;101032.91;107087;1266;25350;-51
2023/07/31 05:41:00;;;;;;;2.10;1.50;;;;;;;25.92;66.40;101037.36;107120;1260;25449;-51
2023/07/31 05:43:27;;;;;;;1.80;1.60;;;;;;;26.20;65.84;101035.77;106974;1269;25350;-51
2023/07/31 05:45:53;;;;;;;2.70;1.80;;;;;;;26.53;64.76;101034.96;107218;1260;25369;-51
2023/07/31 05:48:21;;;;;;;2.40;1.60;;;;;;;26.86;63.45;101035.21;107211;1254;25487;-51
2023/07/31 05:50:47;;;;;;;1.60;1.30;;;;;;;27.15;62.46;101032.67;107235;1262;22523;-52
2023/07/31 05:53:14;;;;;;;2.30;1.70;;;;;;;27.37;61.25;101026.65;107245;1260;25481;-51
2023/07/31 05:55:41;;;;;;;3.80;1.80;;;;;;;27.57;60.38;101025.27;107011;1259;25369;-52
2023/07/31 05:58:08;;;;;;;1.90;1.50;;;;;;;27.76;59.75;101023.57;106966;1261;22542;-52
2023/07/31 06:00:35;;;;;;;1.60;1.50;;;;;;;27.96;59.17;101025.88;107171;1263;25484;-52
2023/07/31 06:03:02;;;;;;;2.40;1.40;;;;;;;28.18;58.64;101026.68;107099;1266;25368;-51
2023/07/31 06:05:29;;;;;;;2.10;1.40;;;;;;;28.41;57.88;101028.13;106886;1267;25580;-51
2023/07/31 06:07:57;;;;;;;1.90;1.60;;;;;;;28.64;57.18;101026.55;107167;1253;23874;-52
2023/07/31 06:10:24;;;;;;;1.80;1.30;;;;;;;28.85;56.39;101031.83;107173;1251;25338;-52
2023/07/31 06:12:51;;;;;;;1.80;1.30;;;;;;;29.03;55.50;101031.42;107134;1257;25341;-51
2023/07/31 06:15:19;;;;;;;1.80;1.30;;;;;;;29.16;54.96;101035.77;106797;1267;25350;-51
2023/07/31 06:17:46;;;;;;;1.50;1.30;;;;;;;29.22;54.51;101040.33;106964;1254;25375;-52
2023/07/31 06:20:13;;;;;;;2.10;1.60;;;;;;;29.22;54.06;101040.55;106927;1264;25331;-54
2023/07/31 06:22:40;;;;;;;2.90;1.50;;;;;;;29.15;54.11;101044.05;106991;1254;23303;-52
2023/07/31 06:25:07;;;;;;;3.00;1.40;;;;;;;29.06;54.28;101044.38;106892;1251;25373;-51
2023/07/31 06:27:34;;;;;;;2.40;1.50;;;;;;;28.96;54.57;101047.94;107110;1263;25389;-51
2023/07/31 06:30:01;;;;;;;1.60;1.50;;;;;;;28.86;54.77;101045.11;107158;1264;25328;-51
2023/07/31 06:32:28;;;;;;;3.10;1.60;;;;;;;28.77;55.04;101044.37;107107;1260;25353;-51
2023/07/31 06:34:55;;;;;;;1.70;1.30;;;;;;;28.70;55.22;101049.16;107258;1264;25433;-51
2023/07/31 06:37:22;;;;;;;3.00;1.70;;;;;;;28.64;55.37;101047.80;107163;1266;24199;-51
2023/07/31 06:39:49;;;;;;;1.80;1.50;;;;;;;28.59;55.41;101044.36;107189;1264;25369;-51
2023/07/31 06:42:16;;;;;;;3.90;1.70;;;;;;;28.54;55.62;101040.09;107069;1254;25452;-52
2023/07/31 06:44:43;;;;;;;2.80;1.40;;;;;;;28.50;55.80;101043.55;107246;1253;23348;-52
2023/07/31 06:47:10;;;;;;;1.60;1.50;;;;;;;28.45;55.95;101042.92;106957;1266;25833;-52
2023/07/31 06:49:37;;;;;;;3.60;1.40;;;;;;;28.41;56.29;101045.95;107061;1266;25456;-51
2023/07/31 06:52:05;;;;;;;1.70;1.40;;;;;;;28.37;56.34;101045.05;107146;1260;25417;-51
2023/07/31 06:54:32;;;;;;;2.10;1.70;;;;;;;28.34;56.38;101043.41;106903;1265;25405;-51
2023/07/31 06:56:59;;;;;;;2.10;1.50;;;;;;;28.31;56.65;101045.32;106917;1264;25331;-51
2023/07/31 06:59:26;;;;;;;1.70;1.40;;;;;;;28.28;56.73;101044.33;106941;1254;25353;-51
2023/07/31 07:01:53;;;;;;;2.20;1.50;;;;;;;28.25;56.85;101041.04;107108;1254;25366;-51
2023/07/31 07:04:20;;;;;;;2.30;1.40;;;;;;;28.23;56.96;101041.77;107134;1262;25398;-52
2023/07/31 07:06:47;;;;;;;1.70;1.40;;;;;;;28.25;57.32;101036.10;107042;1263;25399;-51
2023/07/31 07:09:14;;;;;;;2.40;1.50;;;;;;;28.31;57.29;101035.46;107085;1267;25375;-52
2023/07/31 07:11:40;;;;;;;1.80;1.30;;;;;;;28.44;57.11;101038.53;107115;1262;24301;-52
2023/07/31 07:14:07;;;;;;;5.30;1.40;;;;;;;28.60;56.48;101039.08;107347;1259;24217;-51
2023/07/31 07:16:35;;;;;;;2.20;1.60;;;;;;;28.74;55.98;101039.31;106903;1267;22581;-52
2023/07/31 07:19:02;;;;;;;2.10;1.30;;;;;;;28.89;55.50;101040.60;107120;1263;25331;-51
2023/07/31 07:21:31;;;;;;;3.00;1.60;;;;;;;29.01;54.98;101041.23;106922;1258;22633;-50
2023/07/31 07:23:58;;;;;;;1.70;1.40;;;;;;;29.11;54.62;101037.79;107127;1263;25388;-51
2023/07/31 07:26:25;;;;;;;1.80;1.40;;;;;;;29.18;54.43;101040.93;107236;1265;23416;-51
2023/07/31 07:28:52;;;;;;;3.00;1.50;;;;;;;29.19;54.17;101037.73;107144;1257;23390;-51
2023/07/31 07:31:19;;;;;;;2.60;1.60;;;;;;;29.18;54.09;101038.64;107103;1263;25347;-51
2023/07/31 07:33:46;;;;;;;2.10;1.40;;;;;;;29.14;54.12;101036.48;107224;1267;25353;-52
2023/07/31 07:36:13;;;;;;;2.90;1.80;;;;;;;29.09;54.31;101035.17;106955;1265;25356;-51
2023/07/31 07:38:41;;;;;;;3.60;1.60;;;;;;;29.04;54.41;101031.83;107093;1263;25366;-51
2023/07/31 07:41:08;;;;;;;2.60;1.30;;;;;;;29.01;54.40;101033.09;107144;1263;25350;-52
2023/07/31 07:43:35;;;;;;;2.40;1.60;;;;;;;28.97;54.40;101036.90;107098;1262;25398;-52
2023/07/31 07:46:02;;;;;;;1.50;1.10;;;;;;;28.96;54.35;101034.17;107065;1260;25332;-51
2023/07/31 07:48:29;;;;;;;4.40;1.60;;;;;;;28.95;54.57;101037.17;107076;1262;25369;-51
2023/07/31 07:50:56;;;;;;;5.00;1.50;;;;;;;28.93;54.64;101043.00;107034;1266;23858;-50
2023/07/31 07:53:23;;;;;;;2.60;1.40;;;;;;;28.93;54.47;101048.96;107045;1266;25359;-51
2023/07/31 07:55:50;;;;;;;2.50;1.50;;;;;;;28.91;54.38;101047.46;107009;1260;25385;-51
2023/07/31 07:58:18;;;;;;;2.40;1.30;;;;;;;28.89;54.63;101048.23;106780;1266;25340;-52
2023/07/31 08:00:50;;;;;;;4.90;1.30;;;;;;;28.87;54.51;101047.17;107185;1258;25408;-51
2023/07/31 08:03:17;;;;;;;4.10;1.60;;;;;;;28.84;54.53;101048.50;107226;1251;23896;-52
2023/07/31 08:05:44;;;;;;;3.60;1.20;;;;;;;28.81;54.59;101048.83;107110;1260;25290;-52
2023/07/31 08:08:17;;;;;;;3.00;1.60;;;;;;;28.77;54.77;101049.77;106975;1263;25359;-52
2023/07/31 08:10:43;;;;;;;1.60;1.40;;;;;;;28.73;54.83;101050.45;106901;1263;23308;-50
2023/07/31 08:13:11;;;;;;;3.30;1.50;;;;;;;28.71;55.02;101050.11;106723;1262;25365;-52
2023/07/31 08:15:41;;;;;;;2.50;1.40;;;;;;;28.71;55.27;101052.45;106975;1257;25472;-52
2023/07/31 08:18:08;;;;;;;2.20;1.40;;;;;;;28.72;55.20;101053.33;106946;1263;25491;-51
2023/07/31 08:20:36;;;;;;;5.50;1.90;;;;;;;28.72;55.38;101055.19;107104;1257;25341;-51
2023/07/31 08:23:03;;;;;;;1.80;1.10;;;;;;;28.74;55.38;101055.58;107175;1260;25417;-51
2023/07/31 08:25:30;;;;;;;2.40;1.30;;;;;;;28.76;55.32;101057.17;107108;1260;25440;-51
2023/07/31 08:27:57;;;;;;;3.50;1.60;;;;;;;28.78;55.18;101061.27;107192;1263;25418;-51
2023/07/31 08:30:24;;;;;;;3.40;1.40;;;;;;;28.80;55.23;101058.34;107117;1258;23174;-51
2023/07/31 08:32:52;;;;;;;2.30;1.30;;;;;;;28.82;55.12;101062.09;107061;1257;25456;-51
2023/07/31 08:35:19;;;;;;;3.40;1.60;;;;;;;28.84;55.02;101062.31;106987;1266;25366;-51
2023/07/31 08:37:46;;;;;;;3.90;1.80;;;;;;;28.85;55.00;101062.53;107134;1253;25347;-51
2023/07/31 08:40:13;;;;;;;1.50;1.40;;;;;;;28.86;54.86;101068.02;107167;1260;25376;-51
2023/07/31 08:42:47;;;;;;;1.60;1.50;;;;;;;28.86;54.93;101069.77;107112;1253;25338;-51
2023/07/31 08:45:15;;;;;;;2.60;1.30;;;;;;;28.87;54.94;101071.64;107127;1250;25375;-51
2023/07/31 08:47:44;;;;;;;2.00;1.40;;;;;;;28.88;54.85;101069.75;107223;1262;22521;-51
2023/07/31 08:50:15;;;;;;;1.60;1.40;;;;;;;28.89;54.82;101069.63;107196;1263;25341;-51
2023/07/31 08:52:42;;;;;;;2.30;1.40;;;;;;;28.91;54.77;101073.97;107050;1259;25357;-52
2023/07/31 08:55:09;;;;;;;5.80;2.10;;;;;;;28.92;54.78;101070.13;106841;1256;25368;-51
2023/07/31 08:57:37;;;;;;;3.00;1.50;;;;;;;28.93;54.88;101074.14;107124;1263;25478;-51
2023/07/31 09:00:06;;;;;;;2.60;1.40;;;;;;;28.93;54.83;101070.86;107207;1261;23294;-51
2023/07/31 09:02:46;;;;;;;2.60;1.70;;;;;;;28.95;54.81;101072.90;107100;1253;24463;-52
2023/07/31 09:05:13;;;;;;;2.60;1.50;;;;;;;28.97;54.88;101073.02;107114;1254;22665;-53
2023/07/31 09:07:40;;;;;;;2.80;1.80;;;;;;;28.98;54.98;101066.84;106957;1266;22527;-51
2023/07/31 09:10:08;;;;;;;3.30;1.40;;;;;;;29.01;54.98;101068.21;106882;1263;25475;-51
2023/07/31 09:12:35;;;;;;;1.60;1.40;;;;;;;29.04;54.92;101064.93;107014;1266;25344;-51
2023/07/31 09:15:02;;;;;;;3.40;1.70;;;;;;;29.07;54.90;101065.91;106996;1265;25412;-50
2023/07/31 09:17:34;;;;;;;2.70;1.50;;;;;;;29.09;54.75;101063.77;106872;1270;25325;-52
2023/07/31 09:20:15;;;;;;;2.40;1.70;;;;;;;29.10;54.73;101061.08;106885;1269;22545;-51
2023/07/31 09:22:43;;;;;;;2.20;1.50;;;;;;;29.11;54.68;101067.45;106738;1256;23326;-51
2023/07/31 09:25:25;;;;;;;4.50;1.70;;;;;;;29.10;54.90;101068.11;106780;1265;25372;-51
2023/07/31 09:27:59;;;;;;;2.20;1.50;;;;;;;29.11;54.85;101068.23;106603;1259;25382;-51
2023/07/31 09:30:27;;;;;;;4.50;1.80;;;;;;;29.10;54.99;101071.10;106658;1256;25331;-51
2023/07/31 09:33:02;;;;;;;2.00;1.20;;;;;;;29.10;54.92;101069.52;106796;1253;25434;-51
2023/07/31 09:35:33;;;;;;;2.30;1.50;;;;;;;29.10;55.07;101069.48;106931;1254;23122;-52
2023/07/31 09:38:05;;;;;;;5.30;1.90;;;;;;;29.11;55.08;101072.13;106902;1269;22534;-51
2023/07/31 09:40:34;;;;;;;2.00;1.40;;;;;;;29.12;55.18;101071.79;107189;1266;24287;-51
2023/07/31 09:43:03;;;;;;;3.70;1.50;;;;;;;29.14;55.20;101070.40;107037;1251;25417;-51
2023/07/31 09:45:30;;;;;;;1.80;1.40;;;;;;;29.16;55.30;101074.36;106961;1261;25290;-51
2023/07/31 09:48:12;;;;;;;1.80;1.60;;;;;;;29.17;55.35;101067.11;106898;1264;25340;-51
2023/07/31 09:50:39;;;;;;;;;;;;;;;29.17;55.45;101067.77;106869;1263;25383;-51
2023/07/31 09:53:07;;;;;;;2.10;1.80;;;;;;;29.18;55.49;101062.52;107056;1267;25359;-51
2023/07/31 09:55:36;;;;;;;3.20;2.00;;;;;;;29.19;55.52;101065.98;107071;1269;25488;-51
2023/07/31 09:58:07;;;;;;;2.60;1.60;;;;;;;29.20;55.43;101062.70;107163;1266;22516;-51
2023/07/31 10:00:34;;;;;;;;;;;;;;;29.19;55.29;101067.58;107210;1254;25346;-51
2023/07/31 10:03:02;;;;;;;1.90;1.70;;;;;;;29.18;55.34;101068.57;107250;1266;22526;-51
2023/07/31 10:05:35;;;;;;;1.80;1.60;;;;;;;29.15;55.46;101064.98;107188;1260;25332;-51
2023/07/31 10:08:02;;;;;;;1.60;1.30;;;;;;;29.11;55.54;101061.36;107175;1250;22516;-52
2023/07/31 10:10:29;;;;;;;3.30;1.60;;;;;;;29.10;55.62;101064.49;107134;1256;25369;-51
2023/07/31 10:12:56;;;;;;;3.00;1.60;;;;;;;29.11;55.63;101063.56;107130;1257;25490;-51
2023/07/31 10:15:23;;;;;;;1.60;1.40;;;;;;;29.12;55.53;101063.25;107205;1251;26952;-51
2023/07/31 10:17:50;;;;;;;2.00;1.20;;;;;;;29.15;55.64;101065.36;107240;1253;24327;-51
2023/07/31 10:20:17;;;;;;;1.90;1.60;;;;;;;29.18;55.47;101063.63;107082;1270;25340;-51
2023/07/31 10:22:47;;;;;;;2.00;1.50;;;;;;;29.21;55.35;101067.59;107127;1257;25389;-52
2023/07/31 10:25:17;;;;;;;2.20;1.40;;;;;;;29.26;55.34;101068.35;107187;1263;25500;-52
2023/07/31 10:27:44;;;;;;;2.10;1.60;;;;;;;29.29;55.23;101067.21;107156;1257;25481;-51
2023/07/31 10:30:12;;;;;;;3.60;1.90;;;;;;;29.31;55.20;101066.61;107219;1253;25386;-51
2023/07/31 10:32:41;;;;;;;3.10;1.60;;;;;;;29.33;55.07;101067.50;107135;1254;25341;-52
2023/07/31 10:35:08;;;;;;;2.60;1.90;;;;;;;29.34;55.00;101066.33;107141;1260;23880;-51
2023/07/31 10:37:36;;;;;;;1.50;1.30;;;;;;;29.36;55.18;101063.84;107139;1256;24289;-51
2023/07/31 10:40:06;;;;;;;3.00;1.50;;;;;;;29.37;55.29;101061.06;107178;1261;25408;-51
2023/07/31 10:42:38;;;;;;;3.10;1.30;;;;;;;29.39;55.20;101061.36;107172;1250;22524;-52
2023/07/31 10:45:08;;;;;;;3.30;1.50;;;;;;;29.41;55.00;101064.05;106963;1254;25245;-52
2023/07/31 10:47:47;;;;;;;1.40;1.30;;;;;;;29.43;54.87;101065.35;107185;1253;22553;-51
2023/07/31 10:50:19;;;;;;;2.60;1.60;;;;;;;29.42;54.61;101060.91;107089;1263;25363;-51
2023/07/31 10:52:48;;;;;;;3.70;1.50;;;;;;;29.42;54.56;101058.63;107191;1260;25362;-52
2023/07/31 10:55:15;;;;;;;2.80;1.60;;;;;;;29.38;54.65;101059.54;107203;1253;22507;-52
2023/07/31 10:57:47;;;;;;;1.50;1.30;;;;;;;29.36;54.84;101058.25;106925;1257;25245;-52
2023/07/31 11:00:20;;;;;;;2.30;1.40;;;;;;;29.35;54.86;101054.41;107163;1262;25481;-52
2023/07/31 11:03:00;;;;;;;2.00;1.70;;;;;;;29.34;54.78;101056.71;107254;1254;22529;-51
2023/07/31 11:05:50;;;;;;;2.10;1.20;;;;;;;29.33;54.95;101053.17;107222;1259;22514;-53
2023/07/31 11:08:24;;;;;;;3.80;1.90;;;;;;;29.33;54.94;101048.04;107022;1269;25402;-53
2023/07/31 11:11:03;;;;;;;3.10;1.70;;;;;;;29.33;54.99;101051.08;107165;1266;25497;-53
2023/07/31 11:13:31;;;;;;;3.60;1.30;;;;;;;29.33;55.22;101051.02;107127;1263;25340;-52
2023/07/31 11:15:59;;;;;;;2.30;1.60;;;;;;;29.36;55.11;101054.85;107234;1266;25407;-53
2023/07/31 11:18:26;;;;;;;2.50;1.50;;;;;;;29.38;54.92;101049.17;107059;1269;25397;-52
2023/07/31 11:20:54;;;;;;;6.50;1.50;;;;;;;29.38;54.93;101053.45;106944;1266;25481;-52